sensor_id;sensor_type;location;lat;lon;timestamp;temperature;humidity
11826;DHT22;5970;48.094;11.496;2023-07-31T00:02:15;17.50;96.70
11826;DHT22;5970;48.094;11.496;2023-07-31T00:04:42;17.40;96.70
11826;DHT22;5970;48.094;11.496;2023-07-31T00:07:09;17.20;97.10
11826;DHT22;5970;48.094;11.496;2023-07-31T00:09:36;17.10;97.00
11826;DHT22;5970;48.094;11.496;2023-07-31T00:12:02;17.00;97.30
11826;DHT22;5970;48.094;11.496;2023-07-31T00:14:29;16.90;97.30
11826;DHT22;5970;48.094;11.496;2023-07-31T00:16:56;17.50;97.90
11826;DHT22;5970;48.094;11.496;2023-07-31T00:19:23;16.80;98.10
11826;DHT22;5970;48.094;11.496;2023-07-31T00:21:49;16.60;98.00
11826;DHT22;5970;48.094;11.496;2023-07-31T00:24:16;16.50;98.30
11826;DHT22;5970;48.094;11.496;2023-07-31T00:26:42;16.40;98.40
11826;DHT22;5970;48.094;11.496;2023-07-31T00:29:09;17.10;99.10
11826;DHT22;5970;48.094;11.496;2023-07-31T00:31:36;16.20;98.90
11826;DHT22;5970;48.094;11.496;2023-07-31T00:34:02;16.20;99.20
11826;DHT22;5970;48.094;11.496;2023-07-31T00:36:29;16.20;99.30
11826;DHT22;5970;48.094;11.496;2023-07-31T00:38:56;16.10;99.50
11826;DHT22;5970;48.094;11.496;2023-07-31T00:41:23;16.00;99.70
11826;DHT22;5970;48.094;11.496;2023-07-31T00:43:49;16.00;99.90
11826;DHT22;5970;48.094;11.496;2023-07-31T00:46:16;15.90;99.90
11826;DHT22;5970;48.094;11.496;2023-07-31T00:48:43;15.80;99.90
11826;DHT22;5970;48.094;11.496;2023-07-31T00:51:10;15.80;99.90
11826;DHT22;5970;48.094;11.496;2023-07-31T00:53:37;15.80;99.90
11826;DHT22;5970;48.094;11.496;2023-07-31T00:56:03;15.70;99.90
11826;DHT22;5970;48.094;11.496;2023-07-31T00:58:30;15.70;99.90
11826;DHT22;5970;48.094;11.496;2023-07-31T01:00:57;15.70;99.90
11826;DHT22;5970;48.094;11.496;2023-07-31T01:03:23;15.70;99.90
11826;DHT22;5970;48.094;11.496;2023-07-31T01:05:58;15.60;99.90
11826;DHT22;5970;48.094;11.496;2023-07-31T01:08:41;15.80;99.90
11826;DHT22;5970;48.094;11.496;2023-07-31T01:11:14;15.60;99.90
11826;DHT22;5970;48.094;11.496;2023-07-31T01:13:42;15.60;99.90
11826;DHT22;5970;48.094;11.496;2023-07-31T01:16:09;15.70;99.90
11826;DHT22;5970;48.094;11.496;2023-07-31T01:18:35;15.70;99.90
11826;DHT22;5970;48.094;11.496;2023-07-31T01:21:03;15.70;99.90
11826;DHT22;5970;48.094;11.496;2023-07-31T01:23:54;16.00;99.90
11826;DHT22;5970;48.094;11.496;2023-07-31T01:26:23;15.70;99.90
11826;DHT22;5970;48.094;11.496;2023-07-31T01:31:25;15.80;99.90
11826;DHT22;5970;48.094;11.496;2023-07-31T01:33:53;15.90;99.90
11826;DHT22;5970;48.094;11.496;2023-07-31T01:36:20;16.00;99.90
11826;DHT22;5970;48.094;11.496;2023-07-31T01:38:47;16.00;99.90
11826;DHT22;5970;48.094;11.496;2023-07-31T01:41:16;16.10;99.90
11826;DHT22;5970;48.094;11.496;2023-07-31T01:43:42;16.20;99.90
11826;DHT22;5970;48.094;11.496;2023-07-31T01:46:09;16.20;99.90
11826;DHT22;5970;48.094;11.496;2023-07-31T01:48:36;16.30;99.90
11826;DHT22;5970;48.094;11.496;2023-07-31T01:51:03;16.30;99.90
11826;DHT22;5970;48.094;11.496;2023-07-31T01:53:30;16.40;99.90
11826;DHT22;5970;48.094;11.496;2023-07-31T01:55:57;16.40;99.90
11826;DHT22;5970;48.094;11.496;2023-07-31T01:58:24;16.40;99.90
11826;DHT22;5970;48.094;11.496;2023-07-31T02:00:51;16.40;99.90
11826;DHT22;5970;48.094;11.496;2023-07-31T02:03:17;16.50;99.90
11826;DHT22;5970;48.094;11.496;2023-07-31T02:05:45;16.60;99.90
11826;DHT22;5970;48.094;11.496;2023-07-31T02:08:12;16.60;99.90
11826;DHT22;5970;48.094;11.496;2023-07-31T02:10:38;16.70;99.90
11826;DHT22;5970;48.094;11.496;2023-07-31T02:13:05;16.70;99.90
11826;DHT22;5970;48.094;11.496;2023-07-31T02:15:32;16.70;99.90
11826;DHT22;5970;48.094;11.496;2023-07-31T02:17:58;16.70;99.90
11826;DHT22;5970;48.094;11.496;2023-07-31T02:20:25;16.70;99.90
11826;DHT22;5970;48.094;11.496;2023-07-31T02:22:52;16.60;99.90
11826;DHT22;5970;48.094;11.496;2023-07-31T02:25:18;16.60;99.90
11826;DHT22;5970;48.094;11.496;2023-07-31T02:27:45;16.60;99.90
11826;DHT22;5970;48.094;11.496;2023-07-31T02:30:12;16.60;99.90
11826;DHT22;5970;48.094;11.496;2023-07-31T02:32:38;16.50;99.90
11826;DHT22;5970;48.094;11.496;2023-07-31T02:35:05;16.50;99.90
11826;DHT22;5970;48.094;11.496;2023-07-31T02:37:33;16.40;99.90
11826;DHT22;5970;48.094;11.496;2023-07-31T02:40:00;16.50;99.90
11826;DHT22;5970;48.094;11.496;2023-07-31T02:42:26;16.40;99.90
11826;DHT22;5970;48.094;11.496;2023-07-31T02:44:53;17.40;99.90
11826;DHT22;5970;48.094;11.496;2023-07-31T02:47:22;16.30;99.90
11826;DHT22;5970;48.094;11.496;2023-07-31T02:49:49;16.20;99.90
11826;DHT22;5970;48.094;11.496;2023-07-31T02:52:16;16.20;99.90
11826;DHT22;5970;48.094;11.496;2023-07-31T02:54:43;16.10;99.90
11826;DHT22;5970;48.094;11.496;2023-07-31T02:57:09;16.10;99.90
11826;DHT22;5970;48.094;11.496;2023-07-31T02:59:36;16.90;99.90
11826;DHT22;5970;48.094;11.496;2023-07-31T03:02:03;16.00;99.90
11826;DHT22;5970;48.094;11.496;2023-07-31T03:04:29;16.00;99.90
11826;DHT22;5970;48.094;11.496;2023-07-31T03:06:56;15.90;99.90
11826;DHT22;5970;48.094;11.496;2023-07-31T03:09:23;16.30;99.90
11826;DHT22;5970;48.094;11.496;2023-07-31T03:11:49;15.80;99.90
11826;DHT22;5970;48.094;11.496;2023-07-31T03:14:16;15.80;99.90
11826;DHT22;5970;48.094;11.496;2023-07-31T03:16:43;15.80;99.90
11826;DHT22;5970;48.094;11.496;2023-07-31T03:19:10;15.70;99.90
11826;DHT22;5970;48.094;11.496;2023-07-31T03:21:37;15.80;99.90
11826;DHT22;5970;48.094;11.496;2023-07-31T03:24:03;15.60;99.90
11826;DHT22;5970;48.094;11.496;2023-07-31T03:26:31;15.60;99.90
11826;DHT22;5970;48.094;11.496;2023-07-31T03:28:58;15.60;99.90
11826;DHT22;5970;48.094;11.496;2023-07-31T03:31:24;15.60;99.90
11826;DHT22;5970;48.094;11.496;2023-07-31T03:33:51;15.90;99.90
11826;DHT22;5970;48.094;11.496;2023-07-31T03:36:18;16.10;99.90
11826;DHT22;5970;48.094;11.496;2023-07-31T03:38:45;15.50;99.90
11826;DHT22;5970;48.094;11.496;2023-07-31T03:41:12;16.10;99.90
11826;DHT22;5970;48.094;11.496;2023-07-31T03:43:39;15.50;99.90
11826;DHT22;5970;48.094;11.496;2023-07-31T03:46:05;16.00;99.90
11826;DHT22;5970;48.094;11.496;2023-07-31T03:48:32;15.50;99.90
11826;DHT22;5970;48.094;11.496;2023-07-31T03:50:58;15.50;99.90
11826;DHT22;5970;48.094;11.496;2023-07-31T03:53:25;15.40;99.90
11826;DHT22;5970;48.094;11.496;2023-07-31T03:55:52;15.40;99.90
11826;DHT22;5970;48.094;11.496;2023-07-31T03:58:18;15.40;99.90
11826;DHT22;5970;48.094;11.496;2023-07-31T04:00:45;15.40;99.90
11826;DHT22;5970;48.094;11.496;2023-07-31T04:03:12;15.60;99.90
11826;DHT22;5970;48.094;11.496;2023-07-31T04:05:38;15.40;99.90
11826;DHT22;5970;48.094;11.496;2023-07-31T04:08:06;14.40;99.90
11826;DHT22;5970;48.094;11.496;2023-07-31T04:10:33;15.40;99.90
11826;DHT22;5970;48.094;11.496;2023-07-31T04:13:00;15.40;99.90
11826;DHT22;5970;48.094;11.496;2023-07-31T04:15:27;15.40;99.90
11826;DHT22;5970;48.094;11.496;2023-07-31T04:17:53;15.50;99.90
11826;DHT22;5970;48.094;11.496;2023-07-31T04:20:20;15.50;99.90
11826;DHT22;5970;48.094;11.496;2023-07-31T04:22:47;15.50;99.90
11826;DHT22;5970;48.094;11.496;2023-07-31T04:25:13;15.60;99.90
11826;DHT22;5970;48.094;11.496;2023-07-31T04:27:40;15.70;99.90
11826;DHT22;5970;48.094;11.496;2023-07-31T04:30:07;15.80;99.90
11826;DHT22;5970;48.094;11.496;2023-07-31T04:32:34;15.80;99.90
11826;DHT22;5970;48.094;11.496;2023-07-31T04:35:02;15.90;99.90
11826;DHT22;5970;48.094;11.496;2023-07-31T04:37:28;15.90;99.90
11826;DHT22;5970;48.094;11.496;2023-07-31T04:39:56;16.00;99.90
11826;DHT22;5970;48.094;11.496;2023-07-31T04:42:22;15.90;99.90
11826;DHT22;5970;48.094;11.496;2023-07-31T04:44:49;15.90;99.90
11826;DHT22;5970;48.094;11.496;2023-07-31T04:47:16;16.00;99.90
11826;DHT22;5970;48.094;11.496;2023-07-31T04:49:42;16.00;99.90
11826;DHT22;5970;48.094;11.496;2023-07-31T04:52:09;16.00;99.90
11826;DHT22;5970;48.094;11.496;2023-07-31T04:54:36;16.00;99.90
11826;DHT22;5970;48.094;11.496;2023-07-31T04:57:02;16.00;99.90
11826;DHT22;5970;48.094;11.496;2023-07-31T04:59:29;16.10;99.90
11826;DHT22;5970;48.094;11.496;2023-07-31T05:01:56;16.20;99.90
11826;DHT22;5970;48.094;11.496;2023-07-31T05:04:23;16.30;99.90
11826;DHT22;5970;48.094;11.496;2023-07-31T05:06:49;16.40;99.90
11826;DHT22;5970;48.094;11.496;2023-07-31T05:09:16;16.50;99.90
11826;DHT22;5970;48.094;11.496;2023-07-31T05:11:43;16.70;99.90
11826;DHT22;5970;48.094;11.496;2023-07-31T05:14:10;16.70;99.90
11826;DHT22;5970;48.094;11.496;2023-07-31T05:16:36;16.90;99.90
11826;DHT22;5970;48.094;11.496;2023-07-31T05:19:04;17.00;99.90
11826;DHT22;5970;48.094;11.496;2023-07-31T05:21:30;17.10;99.90
11826;DHT22;5970;48.094;11.496;2023-07-31T05:23:57;17.20;99.90
11826;DHT22;5970;48.094;11.496;2023-07-31T05:26:24;17.30;99.90
11826;DHT22;5970;48.094;11.496;2023-07-31T05:28:50;17.50;99.90
11826;DHT22;5970;48.094;11.496;2023-07-31T05:31:17;17.50;99.90
11826;DHT22;5970;48.094;11.496;2023-07-31T05:33:44;17.60;99.90
11826;DHT22;5970;48.094;11.496;2023-07-31T05:36:10;17.70;99.90
11826;DHT22;5970;48.094;11.496;2023-07-31T05:38:37;17.80;99.90
11826;DHT22;5970;48.094;11.496;2023-07-31T05:41:07;17.80;99.90
11826;DHT22;5970;48.094;11.496;2023-07-31T05:43:35;17.90;99.90
11826;DHT22;5970;48.094;11.496;2023-07-31T05:46:01;17.90;99.90
11826;DHT22;5970;48.094;11.496;2023-07-31T05:48:32;18.00;99.90
11826;DHT22;5970;48.094;11.496;2023-07-31T05:50:58;18.20;99.90
11826;DHT22;5970;48.094;11.496;2023-07-31T05:53:25;18.20;99.90
11826;DHT22;5970;48.094;11.496;2023-07-31T05:55:52;18.30;99.90
11826;DHT22;5970;48.094;11.496;2023-07-31T05:58:18;18.50;99.90
11826;DHT22;5970;48.094;11.496;2023-07-31T06:00:45;18.40;99.90
11826;DHT22;5970;48.094;11.496;2023-07-31T06:03:11;18.40;99.90
11826;DHT22;5970;48.094;11.496;2023-07-31T06:05:38;18.50;99.90
11826;DHT22;5970;48.094;11.496;2023-07-31T06:08:05;18.40;99.90
11826;DHT22;5970;48.094;11.496;2023-07-31T06:10:31;18.60;99.90
11826;DHT22;5970;48.094;11.496;2023-07-31T06:12:58;18.60;99.90
11826;DHT22;5970;48.094;11.496;2023-07-31T06:15:25;18.60;99.90
11826;DHT22;5970;48.094;11.496;2023-07-31T06:17:51;18.70;99.90
11826;DHT22;5970;48.094;11.496;2023-07-31T06:20:18;18.80;99.90
11826;DHT22;5970;48.094;11.496;2023-07-31T06:22:45;18.90;99.90
11826;DHT22;5970;48.094;11.496;2023-07-31T06:25:12;19.10;99.90
11826;DHT22;5970;48.094;11.496;2023-07-31T06:27:41;19.00;99.60
11826;DHT22;5970;48.094;11.496;2023-07-31T06:30:08;18.70;99.30
11826;DHT22;5970;48.094;11.496;2023-07-31T06:32:34;18.80;99.80
11826;DHT22;5970;48.094;11.496;2023-07-31T06:35:02;18.70;99.10
11826;DHT22;5970;48.094;11.496;2023-07-31T06:37:29;18.80;99.30
11826;DHT22;5970;48.094;11.496;2023-07-31T06:39:56;18.90;99.70
11826;DHT22;5970;48.094;11.496;2023-07-31T06:42:22;19.10;99.20
11826;DHT22;5970;48.094;11.496;2023-07-31T06:44:49;18.90;99.00
11826;DHT22;5970;48.094;11.496;2023-07-31T06:47:16;19.10;99.00
11826;DHT22;5970;48.094;11.496;2023-07-31T06:49:42;18.90;99.20
11826;DHT22;5970;48.094;11.496;2023-07-31T06:52:09;18.90;99.20
11826;DHT22;5970;48.094;11.496;2023-07-31T06:54:37;19.20;99.90
11826;DHT22;5970;48.094;11.496;2023-07-31T06:57:04;19.20;99.10
11826;DHT22;5970;48.094;11.496;2023-07-31T06:59:31;19.40;99.30
11826;DHT22;5970;48.094;11.496;2023-07-31T07:01:57;19.70;98.70
11826;DHT22;5970;48.094;11.496;2023-07-31T07:04:24;19.80;98.20
11826;DHT22;5970;48.094;11.496;2023-07-31T07:06:51;20.00;97.90
11826;DHT22;5970;48.094;11.496;2023-07-31T07:09:17;20.10;97.90
11826;DHT22;5970;48.094;11.496;2023-07-31T07:11:44;19.70;96.70
11826;DHT22;5970;48.094;11.496;2023-07-31T07:14:11;19.80;97.50
11826;DHT22;5970;48.094;11.496;2023-07-31T07:16:37;19.60;96.70
11826;DHT22;5970;48.094;11.496;2023-07-31T07:19:08;19.80;97.40
11826;DHT22;5970;48.094;11.496;2023-07-31T07:21:34;20.00;96.90
11826;DHT22;5970;48.094;11.496;2023-07-31T07:24:01;20.00;96.60
11826;DHT22;5970;48.094;11.496;2023-07-31T07:26:28;19.90;96.70
11826;DHT22;5970;48.094;11.496;2023-07-31T07:28:54;20.00;96.90
11826;DHT22;5970;48.094;11.496;2023-07-31T07:31:21;20.30;96.60
11826;DHT22;5970;48.094;11.496;2023-07-31T07:33:48;20.20;95.90
11826;DHT22;5970;48.094;11.496;2023-07-31T07:36:15;20.30;96.20
11826;DHT22;5970;48.094;11.496;2023-07-31T07:38:41;20.40;95.70
11826;DHT22;5970;48.094;11.496;2023-07-31T07:41:08;20.50;95.40
11826;DHT22;5970;48.094;11.496;2023-07-31T07:43:35;20.60;95.40
11826;DHT22;5970;48.094;11.496;2023-07-31T07:46:02;20.60;95.20
11826;DHT22;5970;48.094;11.496;2023-07-31T07:48:29;20.40;95.20
11826;DHT22;5970;48.094;11.496;2023-07-31T07:50:55;20.40;95.10
11826;DHT22;5970;48.094;11.496;2023-07-31T07:53:22;20.30;95.00
11826;DHT22;5970;48.094;11.496;2023-07-31T07:55:49;20.40;95.30
11826;DHT22;5970;48.094;11.496;2023-07-31T07:58:15;20.80;95.10
11826;DHT22;5970;48.094;11.496;2023-07-31T08:00:47;20.70;94.30
11826;DHT22;5970;48.094;11.496;2023-07-31T08:03:14;20.90;94.30
11826;DHT22;5970;48.094;11.496;2023-07-31T08:05:41;21.40;94.30
11826;DHT22;5970;48.094;11.496;2023-07-31T08:08:08;21.90;93.80
11826;DHT22;5970;48.094;11.496;2023-07-31T08:10:35;22.20;92.30
11826;DHT22;5970;48.094;11.496;2023-07-31T08:13:02;22.70;92.70
11826;DHT22;5970;48.094;11.496;2023-07-31T08:15:29;22.90;92.20
11826;DHT22;5970;48.094;11.496;2023-07-31T08:17:55;23.20;91.40
11826;DHT22;5970;48.094;11.496;2023-07-31T08:20:22;23.00;90.30
11826;DHT22;5970;48.094;11.496;2023-07-31T08:22:49;22.80;90.80
11826;DHT22;5970;48.094;11.496;2023-07-31T08:25:15;22.30;89.80
11826;DHT22;5970;48.094;11.496;2023-07-31T08:27:43;22.10;90.20
11826;DHT22;5970;48.094;11.496;2023-07-31T08:30:10;22.40;90.80
11826;DHT22;5970;48.094;11.496;2023-07-31T08:32:36;22.60;91.00
11826;DHT22;5970;48.094;11.496;2023-07-31T08:35:03;22.60;91.20
11826;DHT22;5970;48.094;11.496;2023-07-31T08:37:30;22.50;91.00
11826;DHT22;5970;48.094;11.496;2023-07-31T08:39:57;22.60;91.60
11826;DHT22;5970;48.094;11.496;2023-07-31T08:42:24;22.40;90.20
11826;DHT22;5970;48.094;11.496;2023-07-31T08:44:52;22.30;91.00
11826;DHT22;5970;48.094;11.496;2023-07-31T08:47:19;22.30;90.70
11826;DHT22;5970;48.094;11.496;2023-07-31T08:49:47;22.20;91.00
11826;DHT22;5970;48.094;11.496;2023-07-31T08:52:14;22.10;91.20
11826;DHT22;5970;48.094;11.496;2023-07-31T08:54:41;22.00;91.60
11826;DHT22;5970;48.094;11.496;2023-07-31T08:57:07;22.10;91.60
11826;DHT22;5970;48.094;11.496;2023-07-31T08:59:35;22.00;91.40
11826;DHT22;5970;48.094;11.496;2023-07-31T09:02:05;21.80;91.10
11826;DHT22;5970;48.094;11.496;2023-07-31T09:04:32;21.90;92.30
11826;DHT22;5970;48.094;11.496;2023-07-31T09:07:00;21.90;91.30
11826;DHT22;5970;48.094;11.496;2023-07-31T09:09:27;22.10;91.20
11826;DHT22;5970;48.094;11.496;2023-07-31T09:11:53;22.20;91.70
11826;DHT22;5970;48.094;11.496;2023-07-31T09:14:21;22.40;91.20
11826;DHT22;5970;48.094;11.496;2023-07-31T09:16:51;22.90;90.60
11826;DHT22;5970;48.094;11.496;2023-07-31T09:19:53;23.40;89.40
11826;DHT22;5970;48.094;11.496;2023-07-31T09:22:12;23.50;88.20
11826;DHT22;5970;48.094;11.496;2023-07-31T09:24:39;24.10;89.70
11826;DHT22;5970;48.094;11.496;2023-07-31T09:27:06;24.10;86.40
11826;DHT22;5970;48.094;11.496;2023-07-31T09:29:32;24.60;86.20
11826;DHT22;5970;48.094;11.496;2023-07-31T09:31:59;25.00;85.70
11826;DHT22;5970;48.094;11.496;2023-07-31T09:34:38;25.30;82.30
11826;DHT22;5970;48.094;11.496;2023-07-31T09:37:07;25.40;83.40
11826;DHT22;5970;48.094;11.496;2023-07-31T09:39:45;24.60;80.70
11826;DHT22;5970;48.094;11.496;2023-07-31T09:42:12;24.10;82.50
11826;DHT22;5970;48.094;11.496;2023-07-31T09:44:39;24.60;83.80
11826;DHT22;5970;48.094;11.496;2023-07-31T09:47:08;25.30;84.10
11826;DHT22;5970;48.094;11.496;2023-07-31T09:49:47;26.00;82.60
11826;DHT22;5970;48.094;11.496;2023-07-31T09:52:13;25.40;78.50
11826;DHT22;5970;48.094;11.496;2023-07-31T09:54:40;25.20;82.10
11826;DHT22;5970;48.094;11.496;2023-07-31T09:57:07;26.10;79.10
11826;DHT22;5970;48.094;11.496;2023-07-31T09:59:34;26.40;78.30
11826;DHT22;5970;48.094;11.496;2023-07-31T10:02:01;27.40;77.20
11826;DHT22;5970;48.094;11.496;2023-07-31T10:04:28;27.80;71.50
11826;DHT22;5970;48.094;11.496;2023-07-31T10:06:55;28.30;70.30
11826;DHT22;5970;48.094;11.496;2023-07-31T10:09:23;28.40;70.60
11826;DHT22;5970;48.094;11.496;2023-07-31T10:11:53;28.30;69.30
11826;DHT22;5970;48.094;11.496;2023-07-31T10:14:22;28.40;71.00
11826;DHT22;5970;48.094;11.496;2023-07-31T10:16:50;27.30;70.90
11826;DHT22;5970;48.094;11.496;2023-07-31T10:19:17;26.60;71.50
11826;DHT22;5970;48.094;11.496;2023-07-31T10:21:44;26.70;70.90
11826;DHT22;5970;48.094;11.496;2023-07-31T10:24:11;26.80;73.60
11826;DHT22;5970;48.094;11.496;2023-07-31T10:26:38;26.10;70.20
11826;DHT22;5970;48.094;11.496;2023-07-31T10:29:06;25.90;72.40
11826;DHT22;5970;48.094;11.496;2023-07-31T10:31:33;26.00;72.90
11826;DHT22;5970;48.094;11.496;2023-07-31T10:34:00;26.20;73.70
11826;DHT22;5970;48.094;11.496;2023-07-31T10:36:29;26.80;71.00
11826;DHT22;5970;48.094;11.496;2023-07-31T10:38:56;26.80;69.90
11826;DHT22;5970;48.094;11.496;2023-07-31T10:41:29;27.20;70.50
11826;DHT22;5970;48.094;11.496;2023-07-31T10:44:00;28.10;68.10
11826;DHT22;5970;48.094;11.496;2023-07-31T10:46:29;27.70;65.90
11826;DHT22;5970;48.094;11.496;2023-07-31T10:49:02;27.90;67.60
11826;DHT22;5970;48.094;11.496;2023-07-31T10:51:33;27.80;67.80
11826;DHT22;5970;48.094;11.496;2023-07-31T10:54:10;27.70;68.80
11826;DHT22;5970;48.094;11.496;2023-07-31T10:56:37;27.10;69.50
11826;DHT22;5970;48.094;11.496;2023-07-31T10:59:05;27.00;69.70
11826;DHT22;5970;48.094;11.496;2023-07-31T11:04:22;26.90;68.10
11826;DHT22;5970;48.094;11.496;2023-07-31T11:06:56;26.30;70.70
11826;DHT22;5970;48.094;11.496;2023-07-31T11:09:25;26.60;72.00
11826;DHT22;5970;48.094;11.496;2023-07-31T11:11:53;26.50;71.00
11826;DHT22;5970;48.094;11.496;2023-07-31T11:14:20;25.90;74.90
11826;DHT22;5970;48.094;11.496;2023-07-31T11:16:49;25.70;73.00
11826;DHT22;5970;48.094;11.496;2023-07-31T11:19:21;26.60;72.10
11826;DHT22;5970;48.094;11.496;2023-07-31T11:21:47;27.00;67.20
11826;DHT22;5970;48.094;11.496;2023-07-31T11:24:14;28.30;67.30
11826;DHT22;5970;48.094;11.496;2023-07-31T11:26:53;29.30;66.60
11826;DHT22;5970;48.094;11.496;2023-07-31T11:29:20;29.70;62.90
11826;DHT22;5970;48.094;11.496;2023-07-31T11:31:47;30.70;60.60
11826;DHT22;5970;48.094;11.496;2023-07-31T11:34:14;30.00;59.60
11826;DHT22;5970;48.094;11.496;2023-07-31T11:36:42;30.50;59.50
11826;DHT22;5970;48.094;11.496;2023-07-31T11:39:18;31.60;60.00
11826;DHT22;5970;48.094;11.496;2023-07-31T11:41:45;32.20;57.20
11826;DHT22;5970;48.094;11.496;2023-07-31T11:44:11;31.40;58.20
11826;DHT22;5970;48.094;11.496;2023-07-31T11:46:56;31.60;58.80
11826;DHT22;5970;48.094;11.496;2023-07-31T11:49:22;32.40;59.20
11826;DHT22;5970;48.094;11.496;2023-07-31T11:51:49;31.80;55.60
11826;DHT22;5970;48.094;11.496;2023-07-31T11:54:16;31.80;56.40
11826;DHT22;5970;48.094;11.496;2023-07-31T11:56:43;32.10;54.00
11826;DHT22;5970;48.094;11.496;2023-07-31T11:59:11;31.90;54.30
11826;DHT22;5970;48.094;11.496;2023-07-31T12:01:39;31.10;53.80
11826;DHT22;5970;48.094;11.496;2023-07-31T12:04:06;31.00;58.60
11826;DHT22;5970;48.094;11.496;2023-07-31T12:06:34;31.00;54.90
11826;DHT22;5970;48.094;11.496;2023-07-31T12:09:04;31.50;56.10
11826;DHT22;5970;48.094;11.496;2023-07-31T12:11:31;32.20;52.60
11826;DHT22;5970;48.094;11.496;2023-07-31T12:14:08;32.00;52.80
11826;DHT22;5970;48.094;11.496;2023-07-31T12:16:45;30.70;51.90
11826;DHT22;5970;48.094;11.496;2023-07-31T12:19:12;30.40;56.50
11826;DHT22;5970;48.094;11.496;2023-07-31T12:21:38;29.90;58.10
11826;DHT22;5970;48.094;11.496;2023-07-31T12:24:05;29.80;57.80
11826;DHT22;5970;48.094;11.496;2023-07-31T12:26:35;30.40;57.80
11826;DHT22;5970;48.094;11.496;2023-07-31T12:29:02;29.90;54.90
11826;DHT22;5970;48.094;11.496;2023-07-31T12:31:28;31.10;57.60
11826;DHT22;5970;48.094;11.496;2023-07-31T12:33:56;31.20;54.40
11826;DHT22;5970;48.094;11.496;2023-07-31T12:36:23;31.00;54.70
11826;DHT22;5970;48.094;11.496;2023-07-31T12:38:50;31.20;55.60
11826;DHT22;5970;48.094;11.496;2023-07-31T12:41:17;31.90;57.10
11826;DHT22;5970;48.094;11.496;2023-07-31T12:43:44;32.30;53.80
11826;DHT22;5970;48.094;11.496;2023-07-31T12:46:11;31.50;53.80
11826;DHT22;5970;48.094;11.496;2023-07-31T12:48:38;31.00;55.10
11826;DHT22;5970;48.094;11.496;2023-07-31T12:51:05;32.20;53.40
11826;DHT22;5970;48.094;11.496;2023-07-31T12:53:33;32.80;51.80
11826;DHT22;5970;48.094;11.496;2023-07-31T12:56:00;32.70;52.60
11826;DHT22;5970;48.094;11.496;2023-07-31T12:58:26;32.10;53.70
11826;DHT22;5970;48.094;11.496;2023-07-31T13:00:53;31.30;55.30
11826;DHT22;5970;48.094;11.496;2023-07-31T13:03:20;30.30;56.50
11826;DHT22;5970;48.094;11.496;2023-07-31T13:05:46;29.60;56.80
11826;DHT22;5970;48.094;11.496;2023-07-31T13:08:13;29.00;56.80
11826;DHT22;5970;48.094;11.496;2023-07-31T13:10:42;28.90;57.40
11826;DHT22;5970;48.094;11.496;2023-07-31T13:13:09;28.70;57.80
11826;DHT22;5970;48.094;11.496;2023-07-31T13:15:36;29.00;57.90
11826;DHT22;5970;48.094;11.496;2023-07-31T13:18:02;29.90;58.20
11826;DHT22;5970;48.094;11.496;2023-07-31T13:20:29;30.30;56.00
11826;DHT22;5970;48.094;11.496;2023-07-31T13:22:56;31.30;54.50
11826;DHT22;5970;48.094;11.496;2023-07-31T13:25:22;31.60;53.90
11826;DHT22;5970;48.094;11.496;2023-07-31T13:27:49;31.10;53.30
11826;DHT22;5970;48.094;11.496;2023-07-31T13:30:16;30.30;54.80
11826;DHT22;5970;48.094;11.496;2023-07-31T13:32:43;29.60;56.00
11826;DHT22;5970;48.094;11.496;2023-07-31T13:35:09;29.80;55.40
11826;DHT22;5970;48.094;11.496;2023-07-31T13:37:38;29.30;56.10
11826;DHT22;5970;48.094;11.496;2023-07-31T13:40:05;29.80;55.30
11826;DHT22;5970;48.094;11.496;2023-07-31T13:42:32;31.50;55.90
11826;DHT22;5970;48.094;11.496;2023-07-31T13:44:59;32.10;53.90
11826;DHT22;5970;48.094;11.496;2023-07-31T13:47:28;32.30;50.80
11826;DHT22;5970;48.094;11.496;2023-07-31T13:49:55;31.20;51.50
11826;DHT22;5970;48.094;11.496;2023-07-31T13:52:21;29.80;52.50
11826;DHT22;5970;48.094;11.496;2023-07-31T13:54:48;30.40;54.90
11826;DHT22;5970;48.094;11.496;2023-07-31T13:57:15;30.80;56.80
11826;DHT22;5970;48.094;11.496;2023-07-31T13:59:41;31.90;55.20
11826;DHT22;5970;48.094;11.496;2023-07-31T14:02:08;32.50;54.70
11826;DHT22;5970;48.094;11.496;2023-07-31T14:04:35;31.00;52.10
11826;DHT22;5970;48.094;11.496;2023-07-31T14:07:01;28.20;55.10
11826;DHT22;5970;48.094;11.496;2023-07-31T14:09:29;28.50;55.60
11826;DHT22;5970;48.094;11.496;2023-07-31T14:11:56;28.10;56.60
11826;DHT22;5970;48.094;11.496;2023-07-31T14:14:22;28.30;57.90
11826;DHT22;5970;48.094;11.496;2023-07-31T14:16:49;28.00;57.40
11826;DHT22;5970;48.094;11.496;2023-07-31T14:19:16;28.00;57.50
11826;DHT22;5970;48.094;11.496;2023-07-31T14:21:43;27.80;58.70
11826;DHT22;5970;48.094;11.496;2023-07-31T14:24:22;27.70;59.00
11826;DHT22;5970;48.094;11.496;2023-07-31T14:26:49;27.00;58.60
11826;DHT22;5970;48.094;11.496;2023-07-31T14:29:16;26.90;61.10
11826;DHT22;5970;48.094;11.496;2023-07-31T14:31:42;26.90;62.40
11826;DHT22;5970;48.094;11.496;2023-07-31T14:34:09;27.20;60.80
11826;DHT22;5970;48.094;11.496;2023-07-31T14:36:36;27.30;59.30
11826;DHT22;5970;48.094;11.496;2023-07-31T14:39:03;28.30;61.30
11826;DHT22;5970;48.094;11.496;2023-07-31T14:41:29;29.70;58.00
11826;DHT22;5970;48.094;11.496;2023-07-31T14:43:56;30.50;57.00
11826;DHT22;5970;48.094;11.496;2023-07-31T14:46:23;30.80;55.20
11826;DHT22;5970;48.094;11.496;2023-07-31T14:48:49;31.60;53.70
11826;DHT22;5970;48.094;11.496;2023-07-31T14:51:16;32.40;56.80
11826;DHT22;5970;48.094;11.496;2023-07-31T14:53:44;32.50;53.20
11826;DHT22;5970;48.094;11.496;2023-07-31T14:56:10;32.20;52.90
11826;DHT22;5970;48.094;11.496;2023-07-31T14:58:37;31.70;51.90
11826;DHT22;5970;48.094;11.496;2023-07-31T15:01:03;30.70;53.20
11826;DHT22;5970;48.094;11.496;2023-07-31T15:03:30;30.80;55.70
11826;DHT22;5970;48.094;11.496;2023-07-31T15:05:57;30.50;55.30
11826;DHT22;5970;48.094;11.496;2023-07-31T15:08:24;28.20;56.20
11826;DHT22;5970;48.094;11.496;2023-07-31T15:10:50;29.10;59.40
11826;DHT22;5970;48.094;11.496;2023-07-31T15:13:23;29.90;57.40
11826;DHT22;5970;48.094;11.496;2023-07-31T15:15:51;29.90;57.40
11826;DHT22;5970;48.094;11.496;2023-07-31T15:18:17;29.60;56.30
11826;DHT22;5970;48.094;11.496;2023-07-31T15:20:44;29.50;56.80
11826;DHT22;5970;48.094;11.496;2023-07-31T15:23:11;28.70;57.50
11826;DHT22;5970;48.094;11.496;2023-07-31T15:25:38;28.60;58.40
11826;DHT22;5970;48.094;11.496;2023-07-31T15:28:04;28.60;59.80
11826;DHT22;5970;48.094;11.496;2023-07-31T15:30:33;28.00;59.30
11826;DHT22;5970;48.094;11.496;2023-07-31T15:33:01;28.00;61.00
11826;DHT22;5970;48.094;11.496;2023-07-31T15:35:28;27.90;61.00
11826;DHT22;5970;48.094;11.496;2023-07-31T15:37:55;27.30;59.50